Time;durP1;ratioP1;P1;durP2;ratioP2;P2;SDS_P1;SDS_P2;PMS_P1;PMS_P2;Temp;Humidity;BMP_temperature;BMP_pressure;BME280_temperature;BME280_humidity;BME280_pressure;Samples;Min_cycle;Max_cycle;Signal;HPM_P1;HPM_P2
2021/10/21 00:00:16;;;;;;;1.90;1.48;;;17.90;99.90;;;;;;6054406;23;20752;-91
2021/10/21 00:03:00;;;;;;;1.70;1.60;;;17.80;99.90;;;;;;6117540;23;20429;-90
2021/10/21 00:05:45;;;;;;;1.50;1.40;;;17.90;99.90;;;;;;6097015;23;20399;-90
2021/10/21 00:08:29;;;;;;;1.50;1.40;;;17.90;99.90;;;;;;6078857;23;20384;-91
2021/10/21 00:11:14;;;;;;;1.73;1.40;;;17.90;99.90;;;;;;6120303;23;20399;-91
2021/10/21 00:13:58;;;;;;;1.10;1.10;;;17.90;99.90;;;;;;6079254;23;20371;-90
2021/10/21 00:16:42;;;;;;;1.58;1.48;;;17.80;99.90;;;;;;6100104;23;20396;-89
2021/10/21 00:19:27;;;;;;;1.63;1.52;;;17.80;99.90;;;;;;6078032;23;20380;-89
2021/10/21 00:22:11;;;;;;;2.15;1.38;;;17.70;99.90;;;;;;6078858;23;20359;-88
2021/10/21 00:24:56;;;;;;;1.50;1.40;;;17.70;99.90;;;;;;6057103;23;20424;-90
2021/10/21 00:27:40;;;;;;;1.40;1.30;;;17.70;99.90;;;;;;6104981;23;20428;-91
2021/10/21 00:30:25;;;;;;;3.00;1.70;;;17.60;99.90;;;;;;6077209;23;20360;-88
2021/10/21 00:33:10;;;;;;;1.40;1.30;;;17.60;99.90;;;;;;6079170;23;20484;-87
2021/10/21 00:35:54;;;;;;;1.30;1.20;;;17.60;99.90;;;;;;6076866;23;20384;-88
2021/10/21 00:38:38;;;;;;;1.70;1.60;;;17.50;99.90;;;;;;6118054;23;20387;-88
2021/10/21 00:41:22;;;;;;;1.38;1.27;;;17.50;99.90;;;;;;6077924;23;20694;-90
2021/10/21 00:44:12;;;;;;;1.52;1.40;;;17.70;99.90;;;;;;6074753;23;21268;-90
2021/10/21 00:46:57;;;;;;;1.30;1.20;;;17.50;99.90;;;;;;6098503;23;20380;-88
2021/10/21 00:49:42;;;;;;;1.38;1.20;;;17.50;99.90;;;;;;6094838;23;20463;-93
2021/10/21 00:52:26;;;;;;;1.27;1.25;;;17.50;99.90;;;;;;6118402;23;20368;-86
2021/10/21 00:55:10;;;;;;;1.75;1.30;;;17.40;99.90;;;;;;6074646;23;20699;-89
2021/10/21 00:57:55;;;;;;;1.35;1.30;;;17.30;99.90;;;;;;6117414;23;20499;-88
2021/10/21 01:00:39;;;;;;;1.35;1.25;;;17.30;99.90;;;;;;6093748;23;20396;-87
2021/10/21 01:03:23;;;;;;;1.13;1.13;;;17.30;99.90;;;;;;6098091;23;20477;-89
2021/10/21 01:06:08;;;;;;;1.30;1.20;;;17.30;99.90;;;;;;6077387;23;20449;-90
2021/10/21 01:08:52;;;;;;;1.00;1.00;;;17.20;99.90;;;;;;6074516;23;20396;-87
2021/10/21 01:11:41;;;;;;;1.08;1.05;;;17.20;99.90;;;;;;6076136;23;20746;-89
2021/10/21 01:14:25;;;;;;;1.00;0.82;;;17.20;99.90;;;;;;6115235;23;20380;-91
2021/10/21 01:17:13;;;;;;;1.07;1.07;;;17.20;99.90;;;;;;6074683;23;20384;-91
2021/10/21 01:19:58;;;;;;;0.90;0.90;;;17.20;99.90;;;;;;6116091;23;20457;-91
2021/10/21 01:22:42;;;;;;;1.10;1.00;;;17.20;99.90;;;;;;6097372;23;20392;-90
2021/10/21 01:25:26;;;;;;;1.02;0.93;;;17.20;99.90;;;;;;6116720;23;20395;-87
2021/10/21 01:28:11;;;;;;;0.90;0.90;;;17.10;99.90;;;;;;6076188;23;20452;-91
2021/10/21 01:30:55;;;;;;;1.30;0.93;;;17.10;99.90;;;;;;6101925;23;20445;-89
2021/10/21 01:33:39;;;;;;;0.88;0.88;;;17.20;99.90;;;;;;6096934;23;20396;-91
2021/10/21 01:36:24;;;;;;;0.82;0.82;;;17.20;99.90;;;;;;6077498;23;20419;-90
2021/10/21 01:39:09;;;;;;;1.10;1.10;;;17.20;99.90;;;;;;6077345;23;20388;-88
2021/10/21 01:41:54;;;;;;;1.00;0.98;;;17.10;99.90;;;;;;6097664;23;20384;-92
2021/10/21 01:44:40;;;;;;;0.80;0.80;;;17.20;99.90;;;;;;6096326;23;20368;-89
2021/10/21 01:47:25;;;;;;;1.10;1.00;;;17.20;99.90;;;;;;6117255;23;20363;-87
2021/10/21 01:50:10;;;;;;;1.25;1.05;;;17.20;99.90;;;;;;6139104;23;20368;-92
2021/10/21 01:52:54;;;;;;;1.13;1.02;;;17.20;99.90;;;;;;6118219;23;20384;-90
2021/10/21 01:55:42;;;;;;;1.08;1.00;;;17.30;99.90;;;;;;6116834;23;20408;-90
2021/10/21 01:58:27;;;;;;;0.98;0.98;;;17.20;99.90;;;;;;6076158;23;20391;-86
2021/10/21 02:01:11;;;;;;;1.20;1.10;;;17.10;99.90;;;;;;6074010;23;20372;-87
2021/10/21 02:03:56;;;;;;;0.83;0.83;;;17.00;99.90;;;;;;6116067;23;20392;-90
2021/10/21 02:06:40;;;;;;;0.80;0.80;;;17.00;99.90;;;;;;6075420;23;20375;-91
2021/10/21 02:09:25;;;;;;;0.88;0.88;;;17.00;99.90;;;;;;6115566;23;20388;-90
2021/10/21 02:12:09;;;;;;;0.82;0.82;;;17.00;99.90;;;;;;6077164;23;20389;-89
2021/10/21 02:14:53;;;;;;;0.77;0.77;;;17.10;99.90;;;;;;6075721;23;20368;-88
2021/10/21 02:17:38;;;;;;;1.10;0.70;;;17.00;99.90;;;;;;6092409;23;20383;-88
2021/10/21 02:20:22;;;;;;;0.90;0.90;;;17.00;99.90;;;;;;6116732;23;20399;-89
2021/10/21 02:23:06;;;;;;;1.75;1.02;;;17.00;99.90;;;;;;6076184;23;20384;-87
2021/10/21 02:25:50;;;;;;;3.30;0.90;;;16.90;99.90;;;;;;6075904;23;20460;-86
2021/10/21 02:28:35;;;;;;;1.02;0.88;;;16.90;99.90;;;;;;6076113;23;20376;-89
2021/10/21 02:31:19;;;;;;;1.42;0.88;;;16.90;99.90;;;;;;6097101;23;20380;-91
2021/10/21 02:34:04;;;;;;;0.87;0.87;;;16.90;99.90;;;;;;6055756;23;21051;-92
2021/10/21 02:36:48;;;;;;;0.80;0.80;;;16.80;99.90;;;;;;6097454;23;20423;-90
2021/10/21 02:39:33;;;;;;;0.90;0.83;;;16.80;99.90;;;;;;6076176;23;20368;-92
2021/10/21 02:42:18;;;;;;;0.80;0.80;;;16.80;99.90;;;;;;6077040;23;20400;-89
2021/10/21 02:45:04;;;;;;;0.80;0.80;;;16.70;99.90;;;;;;6096939;23;20384;-90
2021/10/21 02:47:48;;;;;;;0.73;0.73;;;16.80;99.90;;;;;;6104754;23;20348;-88
2021/10/21 02:50:33;;;;;;;0.85;0.85;;;16.70;99.90;;;;;;6077481;23;20457;-89
2021/10/21 02:53:17;;;;;;;0.75;0.75;;;16.70;99.90;;;;;;6099422;23;20376;-87
2021/10/21 02:56:02;;;;;;;0.80;0.80;;;16.60;99.90;;;;;;6078899;23;20372;-89
2021/10/21 02:58:46;;;;;;;1.00;1.00;;;16.50;99.90;;;;;;6078978;23;20409;-89
2021/10/21 03:01:31;;;;;;;0.95;0.88;;;16.40;99.90;;;;;;6082103;23;20396;-89
2021/10/21 03:04:15;;;;;;;1.17;0.93;;;16.40;99.90;;;;;;6101689;23;20412;-91
2021/10/21 03:07:00;;;;;;;0.77;0.77;;;16.20;99.90;;;;;;6083827;23;20468;-90
2021/10/21 03:09:44;;;;;;;0.73;0.73;;;16.10;99.90;;;;;;6120625;23;20416;-90
2021/10/21 03:12:29;;;;;;;1.60;1.00;;;16.00;99.90;;;;;;6080102;23;20388;-90
2021/10/21 03:15:13;;;;;;;0.95;0.95;;;15.90;99.90;;;;;;6080741;23;20363;-88
2021/10/21 03:17:58;;;;;;;0.73;0.73;;;15.70;99.90;;;;;;6100449;23;20392;-90
2021/10/21 03:23:39;;;;;;;0.90;0.90;;;15.50;99.90;;;;;;6079756;23;20378;-84
2021/10/21 03:26:37;;;;;;;1.08;1.08;;;15.40;99.90;;;;;;6051822;23;20742;-81
2021/10/21 03:29:36;;;;;;;1.13;1.02;;;15.50;99.90;;;;;;6037207;23;20390;-81
2021/10/21 03:32:24;;;;;;;1.52;1.20;;;15.50;99.90;;;;;;5996473;23;20424;-87
2021/10/21 03:35:10;;;;;;;1.48;1.08;;;15.50;99.90;;;;;;6051373;23;20374;-82
2021/10/21 03:38:00;;;;;;;0.98;0.98;;;15.50;99.90;;;;;;6057243;23;20395;-88
2021/10/21 03:40:47;;;;;;;1.10;1.10;;;15.60;99.90;;;;;;6048242;23;20604;-84
2021/10/21 03:43:42;;;;;;;2.17;1.05;;;15.60;99.90;;;;;;6039993;23;20433;-82
2021/10/21 03:47:11;;;;;;;0.80;0.80;;;15.60;99.90;;;;;;6029515;23;20386;-85
2021/10/21 03:49:59;;;;;;;1.27;1.17;;;15.70;99.90;;;;;;6029734;23;20384;-86
2021/10/21 03:52:58;;;;;;;2.13;1.50;;;15.70;99.90;;;;;;6057384;23;20375;-82
2021/10/21 03:55:50;;;;;;;1.40;1.20;;;15.70;99.90;;;;;;6080037;23;20399;-87
2021/10/21 03:58:52;;;;;;;1.00;1.00;;;15.70;99.90;;;;;;6011288;23;20898;-89
2021/10/21 04:01:47;;;;;;;1.20;1.10;;;15.80;99.90;;;;;;6051279;23;20452;-82
2021/10/21 04:04:41;;;;;;;1.00;1.00;;;15.80;99.90;;;;;;6032230;23;20773;-85
2021/10/21 04:07:58;;;;;;;1.25;1.15;;;15.90;99.90;;;;;;6013774;23;20385;-86
2021/10/21 04:11:15;;;;;;;0.85;0.85;;;15.90;99.90;;;;;;6036205;23;20397;-84
2021/10/21 04:14:32;;;;;;;0.75;0.75;;;16.00;99.90;;;;;;6054321;23;20496;-87
2021/10/21 04:17:41;;;;;;;0.90;0.90;;;16.10;99.90;;;;;;6032843;23;20407;-86
2021/10/21 04:27:59;;;;;;;2.92;0.98;;;16.20;99.90;;;;;;6089596;23;20466;-89
2021/10/21 04:30:46;;;;;;;0.53;0.53;;;16.20;99.90;;;;;;6045262;23;20382;-88
2021/10/21 04:42:09;;;;;;;0.98;0.98;;;16.00;99.90;;;;;;6059776;23;20430;-85
2021/10/21 04:44:59;;;;;;;0.73;0.73;;;16.20;99.90;;;;;;6026479;23;20394;-84
2021/10/21 04:47:53;;;;;;;0.90;0.90;;;16.20;99.90;;;;;;6048012;23;20406;-89
2021/10/21 04:51:03;;;;;;;0.80;0.80;;;16.10;99.90;;;;;;6005848;23;20373;-85
2021/10/21 04:53:52;;;;;;;0.80;0.80;;;16.10;99.90;;;;;;6044932;23;20376;-89
2021/10/21 04:56:41;;;;;;;0.88;0.88;;;16.10;99.90;;;;;;6047986;23;20373;-82
2021/10/21 04:59:31;;;;;;;1.10;1.00;;;16.10;99.90;;;;;;5978076;23;21041;-90
2021/10/21 05:02:19;;;;;;;0.83;0.83;;;16.10;99.90;;;;;;6046583;23;20421;-85
2021/10/21 05:05:12;;;;;;;0.90;0.90;;;16.10;99.90;;;;;;6090243;23;20741;-83
2021/10/21 05:07:59;;;;;;;1.15;1.05;;;16.10;99.90;;;;;;6029215;23;20510;-83
2021/10/21 05:10:49;;;;;;;1.00;0.98;;;16.10;99.90;;;;;;6049279;23;20437;-85
2021/10/21 05:13:35;;;;;;;2.40;1.00;;;16.00;99.90;;;;;;6028606;23;20377;-83
2021/10/21 05:16:35;;;;;;;0.97;0.97;;;16.00;99.90;;;;;;5997729;23;20397;-88
2021/10/21 05:19:47;;;;;;;1.20;1.10;;;16.10;99.90;;;;;;6062613;23;20679;-87
2021/10/21 05:22:38;;;;;;;1.08;1.08;;;16.10;99.90;;;;;;5941138;23;20389;-85
2021/10/21 05:29:26;;;;;;;1.25;1.15;;;15.90;99.90;;;;;;6035284;23;20414;-87
2021/10/21 05:32:10;;;;;;;1.30;1.20;;;15.70;99.90;;;;;;6057815;23;20367;-86
2021/10/21 05:34:55;;;;;;;1.15;1.05;;;15.60;99.90;;;;;;6015896;23;20375;-86
2021/10/21 05:37:39;;;;;;;1.15;1.13;;;15.40;99.90;;;;;;6038723;23;20460;-85
2021/10/21 05:40:24;;;;;;;1.10;1.10;;;15.30;99.90;;;;;;6040002;23;20379;-87
2021/10/21 05:43:08;;;;;;;1.20;1.10;;;15.30;99.90;;;;;;6042376;23;20375;-87
2021/10/21 05:45:53;;;;;;;2.20;1.25;;;15.20;99.90;;;;;;6040368;23;20383;-88
2021/10/21 05:48:37;;;;;;;1.05;1.02;;;15.20;99.90;;;;;;6018331;23;20384;-89
2021/10/21 05:51:22;;;;;;;1.17;1.17;;;15.10;99.90;;;;;;6040454;23;20448;-89
2021/10/21 05:54:06;;;;;;;1.30;1.20;;;15.10;99.90;;;;;;6037504;23;20379;-89
2021/10/21 05:56:51;;;;;;;1.10;1.10;;;15.10;99.90;;;;;;6060147;23;20415;-86
2021/10/21 05:59:35;;;;;;;1.17;1.17;;;15.00;99.90;;;;;;6038193;23;20378;-85
2021/10/21 06:02:19;;;;;;;1.35;1.25;;;15.00;99.90;;;;;;6060433;23;20424;-85
2021/10/21 06:05:04;;;;;;;2.00;1.08;;;14.90;99.90;;;;;;6058412;23;20371;-86
2021/10/21 06:07:49;;;;;;;1.98;1.45;;;14.90;99.90;;;;;;6039105;23;20408;-87
2021/10/21 06:10:33;;;;;;;1.20;1.10;;;14.90;99.90;;;;;;6037395;23;20489;-85
2021/10/21 06:13:18;;;;;;;1.20;1.10;;;14.90;99.90;;;;;;6037638;23;20375;-84
2021/10/21 06:16:02;;;;;;;1.20;1.10;;;14.80;99.90;;;;;;6057218;23;20391;-86
2021/10/21 06:18:47;;;;;;;1.45;1.35;;;14.80;99.90;;;;;;6016875;23;20395;-88
2021/10/21 06:21:31;;;;;;;1.40;1.33;;;14.80;99.90;;;;;;6039484;23;20411;-85
2021/10/21 06:24:15;;;;;;;2.50;2.00;;;14.80;99.90;;;;;;6016675;23;20382;-86
2021/10/21 06:27:00;;;;;;;2.10;1.48;;;14.80;99.90;;;;;;6020481;23;20407;-87
2021/10/21 06:29:44;;;;;;;1.50;1.30;;;14.70;99.90;;;;;;6017362;23;20383;-87
2021/10/21 06:32:29;;;;;;;1.50;1.40;;;14.70;99.90;;;;;;6041666;23;20440;-86
2021/10/21 06:35:16;;;;;;;1.60;1.42;;;14.70;99.90;;;;;;6057615;23;20403;-86
2021/10/21 06:38:01;;;;;;;1.85;1.40;;;14.70;99.90;;;;;;6039182;23;20451;-87
2021/10/21 06:40:46;;;;;;;1.75;1.65;;;14.70;99.90;;;;;;6013081;23;20383;-87
2021/10/21 06:43:31;;;;;;;1.80;1.33;;;14.90;99.90;;;;;;6041186;23;20382;-89
2021/10/21 06:46:16;;;;;;;2.75;2.50;;;14.80;99.90;;;;;;6021056;23;20415;-87
2021/10/21 06:49:00;;;;;;;2.05;1.60;;;14.80;99.90;;;;;;6037923;23;20378;-90
2021/10/21 06:51:44;;;;;;;1.37;1.27;;;14.90;99.90;;;;;;6039931;23;20442;-86
2021/10/21 06:54:29;;;;;;;1.00;1.00;;;14.90;99.90;;;;;;6038985;23;20411;-90
2021/10/21 06:57:14;;;;;;;1.35;1.27;;;15.10;99.90;;;;;;6022258;23;20439;-91
2021/10/21 06:59:58;;;;;;;1.00;1.00;;;15.20;99.90;;;;;;6059657;23;20379;-88
2021/10/21 07:02:42;;;;;;;1.00;1.00;;;15.40;99.90;;;;;;6038190;23;20407;-83
2021/10/21 07:05:28;;;;;;;1.03;1.03;;;15.50;99.90;;;;;;6040837;23;20410;-86
2021/10/21 07:08:13;;;;;;;1.20;1.10;;;15.60;99.90;;;;;;6044691;23;20358;-90
2021/10/21 07:10:57;;;;;;;1.95;1.13;;;15.70;99.90;;;;;;6044773;23;20391;-89
2021/10/21 07:13:44;;;;;;;0.90;0.90;;;15.80;99.90;;;;;;6026064;23;20371;-88
2021/10/21 07:16:29;;;;;;;1.05;0.95;;;15.90;99.90;;;;;;6065102;23;20391;-89
2021/10/21 07:19:13;;;;;;;1.00;0.80;;;15.70;99.90;;;;;;6024450;23;20564;-87
2021/10/21 07:21:58;;;;;;;1.52;0.77;;;15.60;99.90;;;;;;6067143;23;20400;-89
2021/10/21 07:24:43;;;;;;;0.90;0.90;;;15.30;99.90;;;;;;6064256;23;20449;-89
2021/10/21 07:27:28;;;;;;;0.90;0.90;;;15.20;99.90;;;;;;6033153;23;20389;-88
2021/10/21 07:30:12;;;;;;;0.80;0.80;;;15.10;99.90;;;;;;6036331;23;20425;-88
2021/10/21 07:33:00;;;;;;;1.10;0.93;;;15.00;99.90;;;;;;6038568;23;20390;-89
2021/10/21 07:35:45;;;;;;;0.60;0.60;;;14.90;99.90;;;;;;6056071;23;20405;-88
2021/10/21 07:38:29;;;;;;;0.68;0.68;;;14.90;99.90;;;;;;6057469;23;20412;-87
2021/10/21 07:41:14;;;;;;;0.82;0.68;;;14.90;99.90;;;;;;6058875;23;20436;-86
2021/10/21 07:43:59;;;;;;;0.55;0.55;;;14.90;99.90;;;;;;6038834;23;20409;-87
2021/10/21 07:46:46;;;;;;;1.00;0.90;;;15.00;99.90;;;;;;6058593;23;20376;-87
2021/10/21 07:49:30;;;;;;;1.50;0.70;;;14.90;99.90;;;;;;6036888;23;20369;-86
2021/10/21 07:52:17;;;;;;;0.70;0.70;;;14.90;99.90;;;;;;6037707;23;20406;-88
2021/10/21 07:55:04;;;;;;;1.58;1.00;;;14.90;99.90;;;;;;6018840;23;20357;-87
2021/10/21 07:57:48;;;;;;;0.63;0.63;;;14.90;99.90;;;;;;6036884;23;20732;-87
2021/10/21 08:00:33;;;;;;;0.70;0.70;;;14.90;99.90;;;;;;6016499;23;20553;-88
2021/10/21 08:03:18;;;;;;;0.50;0.50;;;14.90;99.90;;;;;;6037391;23;20446;-84
2021/10/21 08:06:02;;;;;;;0.70;0.70;;;15.10;99.90;;;;;;6017388;23;20361;-81
2021/10/21 08:08:47;;;;;;;0.60;0.60;;;14.90;99.90;;;;;;6035928;23;20361;-80
2021/10/21 08:11:32;;;;;;;1.20;1.20;;;15.00;99.90;;;;;;6037602;23;20437;-86
2021/10/21 08:14:16;;;;;;;0.55;0.55;;;14.90;99.90;;;;;;6035628;23;20377;-86
2021/10/21 08:17:00;;;;;;;0.88;0.77;;;15.00;99.90;;;;;;6037485;23;20540;-83
2021/10/21 08:19:45;;;;;;;0.70;0.70;;;15.00;99.90;;;;;;6036491;23;20368;-87
2021/10/21 08:22:29;;;;;;;2.80;0.82;;;15.00;99.90;;;;;;6037132;23;20406;-85
2021/10/21 08:25:15;;;;;;;0.70;0.70;;;15.00;99.90;;;;;;6056970;23;20385;-88
2021/10/21 08:28:00;;;;;;;0.83;0.80;;;15.10;99.90;;;;;;6057237;23;20369;-89
2021/10/21 08:30:44;;;;;;;1.42;0.60;;;15.10;99.90;;;;;;6045369;23;20388;-85
2021/10/21 08:33:28;;;;;;;0.68;0.68;;;15.10;99.90;;;;;;6009265;23;20437;-89
2021/10/21 08:36:14;;;;;;;1.58;0.90;;;15.20;99.90;;;;;;6063490;23;20378;-86
2021/10/21 08:38:59;;;;;;;0.60;0.60;;;15.30;99.90;;;;;;6045070;23;20394;-87
2021/10/21 08:41:48;;;;;;;0.88;0.68;;;15.30;99.90;;;;;;6027079;23;20412;-93
2021/10/21 08:44:39;;;;;;;3.60;0.90;;;15.40;99.90;;;;;;6024907;23;20411;-91
2021/10/21 08:47:24;;;;;;;0.63;0.63;;;15.40;99.90;;;;;;6027298;23;20387;-87
2021/10/21 08:50:10;;;;;;;0.98;0.88;;;15.50;99.90;;;;;;6046109;23;20370;-90
2021/10/21 08:52:55;;;;;;;0.70;0.70;;;15.80;99.90;;;;;;6025264;23;20383;-89
2021/10/21 08:55:39;;;;;;;0.95;0.85;;;15.80;99.90;;;;;;6044634;23;20523;-89
2021/10/21 08:58:26;;;;;;;1.65;0.88;;;16.00;99.90;;;;;;6045783;23;20379;-90
2021/10/21 09:01:16;;;;;;;0.52;0.52;;;15.90;99.90;;;;;;6025953;23;20376;-88
2021/10/21 09:09:54;;;;;;;0.90;0.75;;;16.10;99.90;;;;;;6043400;23;20380;-91
2021/10/21 09:12:45;;;;;;;0.90;0.80;;;16.20;99.90;;;;;;6045721;23;20393;-92
2021/10/21 09:15:30;;;;;;;1.48;0.90;;;16.20;99.90;;;;;;6045397;23;20395;-89
2021/10/21 09:18:14;;;;;;;1.27;0.97;;;16.20;99.90;;;;;;6043376;23;20377;-89
2021/10/21 09:20:59;;;;;;;1.30;0.90;;;16.10;99.90;;;;;;6022072;23;20407;-93
2021/10/21 09:23:43;;;;;;;0.95;0.88;;;16.10;99.90;;;;;;6042969;23;20473;-91
2021/10/21 09:26:28;;;;;;;1.88;1.08;;;16.00;99.90;;;;;;6022910;23;20388;-91
2021/10/21 09:29:22;;;;;;;3.30;0.90;;;16.00;99.90;;;;;;6040683;23;20416;-92
2021/10/21 09:32:12;;;;;;;0.70;0.70;;;16.00;99.90;;;;;;6042837;23;20403;-88
2021/10/21 09:34:58;;;;;;;3.88;1.13;;;16.00;99.90;;;;;;6041423;23;20395;-88
2021/10/21 09:37:44;;;;;;;1.45;0.90;;;16.00;99.90;;;;;;6023849;23;20403;-90
2021/10/21 09:40:30;;;;;;;2.60;0.97;;;16.00;99.90;;;;;;6042364;23;20415;-91
2021/10/21 09:43:15;;;;;;;1.65;1.00;;;16.00;99.90;;;;;;6043558;23;20400;-89
2021/10/21 09:46:00;;;;;;;1.85;1.15;;;15.90;99.90;;;;;;6042525;23;20396;-88
2021/10/21 09:48:44;;;;;;;1.08;0.93;;;15.90;99.90;;;;;;6061939;23;20396;-88
2021/10/21 09:51:36;;;;;;;3.53;1.10;;;15.80;99.90;;;;;;6064518;23;20407;-91
2021/10/21 09:54:20;;;;;;;5.05;1.05;;;15.80;99.90;;;;;;6041516;23;20383;-89
2021/10/21 09:57:05;;;;;;;8.75;1.38;;;15.70;99.90;;;;;;6062364;23;20543;-90
2021/10/21 10:00:04;;;;;;;6.22;1.13;;;15.80;99.90;;;;;;6039136;23;20477;-92
2021/10/21 10:03:08;;;;;;;1.20;1.10;;;15.70;99.90;;;;;;6046160;23;20375;-89
2021/10/21 10:05:53;;;;;;;5.20;1.05;;;15.80;99.90;;;;;;6042434;23;20375;-90
2021/10/21 10:08:37;;;;;;;3.10;1.10;;;15.80;99.90;;;;;;6041852;23;20371;-88
2021/10/21 10:11:22;;;;;;;0.90;0.80;;;15.70;99.90;;;;;;6022928;23;20375;-91
2021/10/21 10:14:06;;;;;;;6.60;0.88;;;15.70;99.90;;;;;;6042685;23;20367;-87
2021/10/21 10:16:50;;;;;;;1.98;1.00;;;15.70;99.90;;;;;;6003230;23;20367;-88
2021/10/21 10:19:35;;;;;;;2.38;1.10;;;15.60;99.90;;;;;;6043765;23;20459;-89
2021/10/21 10:22:25;;;;;;;1.87;1.13;;;15.50;99.90;;;;;;6043398;23;20404;-87
2021/10/21 10:25:17;;;;;;;2.15;0.90;;;15.40;99.90;;;;;;6044024;23;20421;-90
2021/10/21 10:28:04;;;;;;;1.27;0.90;;;15.40;99.90;;;;;;6004854;23;20384;-86
2021/10/21 10:30:52;;;;;;;2.03;1.00;;;15.40;99.90;;;;;;6036795;23;20425;-89
2021/10/21 10:40:47;;;;;;;1.48;0.98;;;15.30;99.90;;;;;;7447827;19;20317;-85
2021/10/21 10:43:14;;;;;;;2.13;1.20;;;15.10;99.90;;;;;;7345276;19;2005785;-81
2021/10/21 10:45:50;;;;;;;4.72;1.45;;;15.10;99.90;;;;;;7446414;19;20308;-84
2021/10/21 10:48:37;;;;;;;2.00;1.50;;;14.70;99.90;;;;;;7344712;19;2004400;-87
2021/10/21 10:51:03;;;;;;;1.23;0.80;;;14.60;99.90;;;;;;7343991;19;2004450;-87
2021/10/21 10:53:48;;;;;;;4.83;1.60;;;14.50;99.90;;;;;;7452170;19;20296;-89
2021/10/21 10:56:39;;;;;;;1.10;1.03;;;14.40;99.90;;;;;;7347525;19;2007990;-87
2021/10/21 10:59:15;;;;;;;0.98;0.88;;;14.30;99.90;;;;;;7343693;19;2008234;-89
2021/10/21 11:01:41;;;;;;;4.80;1.15;;;14.20;99.90;;;;;;7448823;19;20312;-83
2021/10/21 11:04:06;;;;;;;1.33;0.80;;;14.10;99.90;;;;;;7446860;19;20318;-88
2021/10/21 11:06:34;;;;;;;1.15;0.73;;;14.00;99.90;;;;;;7449591;19;20346;-87
2021/10/21 11:09:05;;;;;;;1.03;0.90;;;13.80;99.90;;;;;;7443884;19;20314;-86
2021/10/21 11:12:01;;;;;;;1.77;0.90;;;13.60;99.90;;;;;;7446765;19;20323;-85
2021/10/21 11:14:34;;;;;;;2.20;0.70;;;13.60;99.90;;;;;;7444344;19;20332;-86
2021/10/21 11:17:00;;;;;;;1.10;0.80;;;13.50;99.90;;;;;;7448835;19;20331;-87
2021/10/21 11:19:47;;;;;;;0.65;0.60;;;13.50;99.90;;;;;;7442062;19;20312;-86
2021/10/21 11:22:19;;;;;;;0.60;0.60;;;13.60;99.90;;;;;;7449199;19;20324;-88
2021/10/21 11:24:45;;;;;;;0.83;0.70;;;13.50;99.90;;;;;;7443708;19;20332;-87
2021/10/21 11:27:12;;;;;;;1.83;0.77;;;13.60;99.90;;;;;;7447707;19;20300;-88
2021/10/21 11:29:37;;;;;;;1.75;0.80;;;13.60;99.90;;;;;;7443342;19;20327;-82
2021/10/21 11:32:07;;;;;;;1.50;0.63;;;13.60;99.90;;;;;;7448435;19;20648;-85
2021/10/21 11:34:32;;;;;;;0.50;0.50;;;13.70;99.90;;;;;;7446793;19;20332;-83
2021/10/21 11:36:58;;;;;;;3.00;0.80;;;13.80;99.90;;;;;;7445314;19;20331;-87
2021/10/21 11:39:33;;;;;;;1.02;0.65;;;13.90;99.90;;;;;;7442803;19;20327;-89
2021/10/21 11:42:06;;;;;;;10.50;1.08;;;14.10;99.90;;;;;;7444174;19;20345;-86
2021/10/21 11:44:32;;;;;;;1.13;0.80;;;14.20;99.90;;;;;;7442889;19;20348;-90
2021/10/21 11:47:02;;;;;;;0.50;0.50;;;14.20;99.90;;;;;;7447544;19;20388;-88
2021/10/21 11:49:31;;;;;;;3.03;0.73;;;14.20;99.90;;;;;;7434279;19;20410;-86
2021/10/21 11:52:11;;;;;;;0.60;0.50;;;14.30;99.90;;;;;;7412851;19;20372;-90
2021/10/21 11:54:38;;;;;;;0.57;0.57;;;14.10;99.90;;;;;;7412896;19;20364;-86
2021/10/21 11:57:04;;;;;;;3.58;1.00;;;14.10;99.90;;;;;;7414588;19;20356;-87
2021/10/21 11:59:32;;;;;;;0.75;0.60;;;14.20;99.90;;;;;;7409225;19;20332;-86
2021/10/21 12:02:08;;;;;;;1.10;0.60;;;14.10;99.90;;;;;;7416189;19;20377;-86
2021/10/21 12:04:35;;;;;;;5.75;0.80;;;14.00;99.90;;;;;;7409922;19;20313;-89
2021/10/21 12:07:01;;;;;;;0.70;0.70;;;13.70;99.90;;;;;;7415418;19;20352;-82
2021/10/21 12:09:27;;;;;;;0.60;0.60;;;13.50;99.90;;;;;;7408286;19;20357;-85
2021/10/21 12:12:13;;;;;;;0.60;0.50;;;13.40;99.90;;;;;;7410773;19;20309;-87
2021/10/21 12:14:42;;;;;;;1.50;0.60;;;13.10;99.90;;;;;;7408027;19;20312;-81
2021/10/21 12:17:08;;;;;;;0.70;0.70;;;13.00;99.90;;;;;;7413916;19;20333;-80
2021/10/21 12:19:33;;;;;;;0.60;0.60;;;13.00;99.90;;;;;;7412658;19;20347;-85
2021/10/21 12:22:03;;;;;;;0.90;0.70;;;13.00;99.90;;;;;;7414593;19;20375;-88
2021/10/21 12:24:29;;;;;;;0.47;0.47;;;13.00;99.90;;;;;;7411494;19;20337;-87
2021/10/21 12:26:59;;;;;;;0.50;0.50;;;13.00;99.90;;;;;;7421903;19;20719;-88
2021/10/21 12:29:38;;;;;;;1.80;0.70;;;13.10;99.90;;;;;;7411673;19;20325;-88
2021/10/21 12:32:08;;;;;;;1.80;0.70;;;13.10;99.90;;;;;;7416505;19;20332;-84
2021/10/21 12:34:34;;;;;;;0.57;0.57;;;13.00;99.90;;;;;;7411224;19;20377;-84
2021/10/21 12:36:59;;;;;;;0.60;0.60;;;13.00;99.90;;;;;;7417189;19;20362;-86
2021/10/21 12:39:27;;;;;;;8.40;1.17;;;13.10;99.90;;;;;;7403325;19;20467;-83
2021/10/21 12:41:54;;;;;;;0.73;0.70;;;13.00;99.90;;;;;;7410709;19;20401;-88
2021/10/21 12:44:25;;;;;;;2.17;0.70;;;13.00;99.90;;;;;;7412427;19;20304;-83
2021/10/21 12:47:10;;;;;;;1.10;0.77;;;12.90;99.90;;;;;;7418708;19;20328;-88
2021/10/21 12:49:36;;;;;;;0.63;0.63;;;13.00;99.90;;;;;;7312313;19;2008613;-89
2021/10/21 12:52:10;;;;;;;0.70;0.70;;;13.00;99.90;;;;;;7417805;19;20328;-87
2021/10/21 12:54:36;;;;;;;0.68;0.68;;;13.00;99.90;;;;;;7414440;19;20860;-86
2021/10/21 12:57:02;;;;;;;5.00;0.87;;;13.20;99.90;;;;;;7417170;19;20305;-85
2021/10/21 12:59:33;;;;;;;0.82;0.82;;;13.10;99.90;;;;;;7412286;19;20361;-85
2021/10/21 13:02:13;;;;;;;0.70;0.70;;;13.10;99.90;;;;;;7418079;19;20348;-87
2021/10/21 13:04:49;;;;;;;1.40;0.70;;;13.20;99.90;;;;;;7413392;19;20336;-89
2021/10/21 13:07:17;;;;;;;1.30;0.80;;;13.20;99.90;;;;;;7418314;19;20367;-87
2021/10/21 13:09:42;;;;;;;3.33;1.00;;;13.10;99.90;;;;;;7415330;19;20349;-89
2021/10/21 13:12:09;;;;;;;0.83;0.80;;;13.10;99.90;;;;;;7416928;19;20301;-89
2021/10/21 13:14:36;;;;;;;6.50;1.13;;;13.00;99.90;;;;;;7412072;19;20328;-82
2021/10/21 13:17:02;;;;;;;1.95;0.93;;;13.00;99.90;;;;;;7413457;19;20332;-89
2021/10/21 13:19:28;;;;;;;0.60;0.60;;;13.00;99.90;;;;;;7412626;19;20312;-87
2021/10/21 13:21:54;;;;;;;2.80;0.67;;;12.90;99.90;;;;;;7416804;19;20333;-86
2021/10/21 13:24:20;;;;;;;0.68;0.68;;;12.80;99.90;;;;;;7412812;19;20316;-89
2021/10/21 13:26:45;;;;;;;0.47;0.47;;;12.80;99.90;;;;;;7415787;19;20321;-84
2021/10/21 13:29:14;;;;;;;0.60;0.60;;;12.80;99.90;;;;;;7413213;19;20352;-89
2021/10/21 13:31:40;;;;;;;1.25;0.82;;;12.90;99.90;;;;;;7418032;19;20353;-88
2021/10/21 13:34:06;;;;;;;0.65;0.50;;;13.00;99.90;;;;;;7413207;19;20344;-84
2021/10/21 13:36:32;;;;;;;1.10;0.90;;;12.90;99.90;;;;;;7414810;19;20332;-82
2021/10/21 13:38:57;;;;;;;0.57;0.57;;;13.00;99.90;;;;;;7410253;19;20331;-85
2021/10/21 13:41:23;;;;;;;1.27;1.05;;;13.10;99.90;;;;;;7404097;19;20368;-80
2021/10/21 13:43:49;;;;;;;1.27;0.80;;;13.00;99.90;;;;;;7401129;19;20377;-81
2021/10/21 13:46:16;;;;;;;1.40;1.00;;;13.00;99.90;;;;;;7397777;19;20312;-80
2021/10/21 13:48:41;;;;;;;1.17;0.70;;;13.10;99.90;;;;;;7391592;19;20750;-83
2021/10/21 13:51:07;;;;;;;4.97;1.13;;;13.10;99.90;;;;;;7399258;19;20342;-85
2021/10/21 13:53:33;;;;;;;0.73;0.70;;;13.10;99.90;;;;;;7405031;19;20888;-83
2021/10/21 13:55:58;;;;;;;1.00;0.80;;;13.20;99.90;;;;;;7406347;19;20794;-86
2021/10/21 13:58:27;;;;;;;1.20;0.83;;;13.30;99.90;;;;;;7413920;19;20317;-88
2021/10/21 14:00:53;;;;;;;1.00;0.90;;;13.50;99.90;;;;;;7409941;19;20554;-85
2021/10/21 14:03:18;;;;;;;1.03;0.93;;;13.60;99.90;;;;;;7415002;19;20348;-84
2021/10/21 14:05:45;;;;;;;2.47;1.00;;;13.70;99.90;;;;;;7411179;19;20345;-80
2021/10/21 14:08:10;;;;;;;1.00;0.90;;;13.50;99.90;;;;;;7401578;19;20329;-82
2021/10/21 14:10:38;;;;;;;0.60;0.60;;;13.50;99.90;;;;;;7394349;19;20329;-79
2021/10/21 14:13:04;;;;;;;0.93;0.82;;;13.40;99.90;;;;;;7399015;19;20297;-81
2021/10/21 14:15:29;;;;;;;3.43;1.00;;;13.40;99.90;;;;;;7398430;19;20364;-81
2021/10/21 14:17:55;;;;;;;0.70;0.70;;;13.40;99.90;;;;;;7403383;19;20337;-82
2021/10/21 14:20:21;;;;;;;1.67;0.93;;;13.50;99.90;;;;;;7407847;19;20357;-86
2021/10/21 14:22:47;;;;;;;1.00;0.90;;;13.50;99.90;;;;;;7414949;19;20329;-83
2021/10/21 14:25:12;;;;;;;2.90;1.00;;;13.50;99.90;;;;;;7412813;19;20343;-84
2021/10/21 14:27:38;;;;;;;1.80;1.00;;;13.40;99.90;;;;;;7413615;19;20433;-90
2021/10/21 14:30:07;;;;;;;1.35;1.08;;;13.40;99.90;;;;;;7412099;19;20331;-85
2021/10/21 14:32:33;;;;;;;1.65;1.25;;;13.40;99.90;;;;;;7415169;19;20324;-87
2021/10/21 14:34:59;;;;;;;1.40;1.25;;;13.40;99.90;;;;;;7409752;19;20349;-85